Time;durP1;ratioP1;P1;durP2;ratioP2;P2;SDS_P1;SDS_P2;PMS_P1;PMS_P2;Temp;Humidity;BMP_temperature;BMP_pressure;BME280_temperature;BME280_humidity;BME280_pressure;Samples;Min_cycle;Max_cycle;Signal;HPM_P1;HPM_P2
2023/01/05 00:01:25;;;;;;;;;;;10.50;99.90;;;;;;5044155;28;20019;-73
2023/01/05 00:03:52;;;;;;;;;;;10.50;99.90;;;;;;5038886;28;19929;-71
2023/01/05 00:06:20;;;;;;;;;;;10.50;99.90;;;;;;5044256;28;19924;-72
2023/01/05 00:08:46;;;;;;;;;;;10.60;99.90;;;;;;5045709;28;20446;-72
2023/01/05 00:22:34;;;;;;;;;;;10.50;99.90;;;;;;5042682;28;20307;-72
2023/01/05 00:25:01;;;;;;;;;;;10.50;99.90;;;;;;5043822;28;19932;-73
2023/01/05 00:27:28;;;;;;;;;;;10.50;99.90;;;;;;5042868;28;20429;-72
2023/01/05 00:29:55;;;;;;;;;;;10.50;99.90;;;;;;5038825;28;19925;-72
2023/01/05 00:32:21;;;;;;;;;;;10.50;99.90;;;;;;5040017;28;19924;-73
2023/01/05 00:34:49;;;;;;;;;;;10.50;99.90;;;;;;5041141;28;19939;-72
2023/01/05 00:37:16;;;;;;;;;;;10.60;99.90;;;;;;5045002;28;20291;-72
2023/01/05 00:39:44;;;;;;;;;;;10.60;99.90;;;;;;5043456;28;19925;-72
2023/01/05 00:42:10;;;;;;;;;;;10.60;99.90;;;;;;5037912;28;19928;-72
2023/01/05 00:44:37;;;;;;;;;;;10.60;99.90;;;;;;5035965;28;22504;-72
2023/01/05 00:47:04;;;;;;;;;;;10.70;99.90;;;;;;5040341;28;20491;-72
2023/01/05 00:49:30;;;;;;;;;;;10.70;99.90;;;;;;5039084;28;20015;-72
2023/01/05 00:51:57;;;;;;;;;;;10.70;99.90;;;;;;5040276;28;19931;-70
2023/01/05 00:54:24;;;;;;;;;;;10.60;99.90;;;;;;5039838;28;20579;-71
2023/01/05 00:56:52;;;;;;;;;;;10.60;99.90;;;;;;5037493;28;19933;-72
2023/01/05 00:59:19;;;;;;;;;;;10.50;99.90;;;;;;5034515;28;20408;-72
2023/01/05 01:01:45;;;;;;;;;;;10.50;99.90;;;;;;5046758;28;19928;-72
2023/01/05 01:04:12;;;;;;;;;;;10.50;99.90;;;;;;5039366;28;19932;-71
2023/01/05 01:06:39;;;;;;;;;;;10.50;99.90;;;;;;5038270;28;19925;-72
2023/01/05 01:09:06;;;;;;;;;;;10.40;99.90;;;;;;5045503;28;19929;-72
2023/01/05 01:11:33;;;;;;;;;;;10.40;99.90;;;;;;5042577;28;19932;-72
2023/01/05 01:14:01;;;;;;;;;;;10.30;99.90;;;;;;5043493;28;19928;-72
2023/01/05 01:16:27;;;;;;;;;;;10.30;99.90;;;;;;5040639;28;19931;-72
2023/01/05 01:18:54;;;;;;;;;;;10.30;99.90;;;;;;5040221;28;19929;-72
2023/01/05 01:21:21;;;;;;;;;;;10.30;99.90;;;;;;5047155;28;20380;-72
2023/01/05 01:23:47;;;;;;;;;;;10.20;99.90;;;;;;5037667;28;19925;-71
2023/01/05 01:26:14;;;;;;;;;;;10.20;99.90;;;;;;5037604;28;20429;-71
2023/01/05 01:28:41;;;;;;;;;;;10.10;99.90;;;;;;5038507;28;19925;-71
2023/01/05 01:31:09;;;;;;;;;;;10.10;99.90;;;;;;5038482;28;20027;-72
2023/01/05 01:33:38;;;;;;;;;;;10.10;99.90;;;;;;5040334;28;19984;-71
2023/01/05 01:36:05;;;;;;;;;;;10.10;99.90;;;;;;5038098;28;20380;-71
2023/01/05 01:38:32;;;;;;;;;;;10.10;99.90;;;;;;5041216;28;19979;-71
2023/01/05 01:40:58;;;;;;;;;;;10.10;99.90;;;;;;5040860;28;19931;-71
2023/01/05 01:43:41;;;;;;;;;;;10.20;99.90;;;;;;5038121;28;19933;-72
2023/01/05 01:46:09;;;;;;;;;;;10.20;99.90;;;;;;5039132;28;19931;-71
2023/01/05 01:48:36;;;;;;;;;;;10.30;99.90;;;;;;5039527;28;20027;-71
2023/01/05 01:51:05;;;;;;;;;;;10.30;99.90;;;;;;5040414;28;20486;-72
2023/01/05 01:53:35;;;;;;;;;;;10.20;99.90;;;;;;5039028;28;19929;-72
2023/01/05 01:56:03;;;;;;;;;;;10.20;99.90;;;;;;5040219;28;19925;-72
2023/01/05 01:58:31;;;;;;;;;;;10.20;99.90;;;;;;5047148;28;19931;-71
2023/01/05 02:00:59;;;;;;;;;;;10.30;99.90;;;;;;5053696;28;19931;-71
2023/01/05 02:03:27;;;;;;;;;;;10.30;99.90;;;;;;5050634;28;19933;-72
2023/01/05 02:05:54;;;;;;;;;;;10.40;99.90;;;;;;5049553;28;20027;-71
2023/01/05 02:08:30;;;;;;;;;;;10.50;99.90;;;;;;5050187;28;20363;-71
2023/01/05 02:11:02;;;;;;;;;;;10.50;99.90;;;;;;5051339;28;19947;-71
2023/01/05 02:13:36;;;;;;;;;;;10.60;99.90;;;;;;5050404;28;19925;-70
2023/01/05 02:16:06;;;;;;;;;;;10.60;99.90;;;;;;5050927;28;19925;-70
2023/01/05 02:18:40;;;;;;;;;;;10.60;99.90;;;;;;5050630;28;19955;-71
2023/01/05 02:21:21;;;;;;;;;;;10.60;99.90;;;;;;5051931;28;20398;-71
2023/01/05 02:24:03;;;;;;;;;;;10.60;99.90;;;;;;5043762;28;20431;-70
2023/01/05 02:26:48;;;;;;;;;;;10.70;99.90;;;;;;5040042;28;20024;-71
2023/01/05 02:29:30;;;;;;;;;;;10.70;99.90;;;;;;5046084;28;21301;-71
2023/01/05 02:32:00;;;;;;;;;;;10.70;99.90;;;;;;5025016;28;19925;-72
2023/01/05 02:34:32;;;;;;;;;;;10.70;99.90;;;;;;5041968;28;19929;-72
2023/01/05 02:37:01;;;;;;;;;;;10.70;99.90;;;;;;5043993;28;20005;-72
2023/01/05 02:39:30;;;;;;;;;;;10.70;99.90;;;;;;5042073;28;19925;-71
2023/01/05 02:41:59;;;;;;;;;;;10.70;99.90;;;;;;5040777;28;19936;-71
2023/01/05 02:44:27;;;;;;;;;;;10.70;99.90;;;;;;5041189;28;19929;-71
2023/01/05 02:47:03;;;;;;;;;;;10.70;99.90;;;;;;5044265;28;19925;-70
2023/01/05 02:49:32;;;;;;;;;;;10.70;99.90;;;;;;5043008;28;19933;-71
2023/01/05 02:52:03;;;;;;;;;;;10.70;99.90;;;;;;5044241;28;19925;-71
2023/01/05 02:54:32;;;;;;;;;;;10.60;99.90;;;;;;5039152;28;19933;-72
2023/01/05 02:57:01;;;;;;;;;;;10.60;99.90;;;;;;5043604;28;20384;-71
2023/01/05 02:59:29;;;;;;;;;;;10.60;99.90;;;;;;5048390;28;20381;-71
2023/01/05 03:01:57;;;;;;;;;;;10.70;99.90;;;;;;5046824;28;19933;-71
2023/01/05 03:04:27;;;;;;;;;;;10.70;99.90;;;;;;5045116;28;19931;-72
2023/01/05 03:06:56;;;;;;;;;;;10.60;99.90;;;;;;5041579;28;20360;-71
2023/01/05 03:09:25;;;;;;;;;;;10.60;99.90;;;;;;5048538;28;20376;-71
2023/01/05 03:14:44;;;;;;;;;;;10.70;99.90;;;;;;5041353;28;19936;-71
2023/01/05 03:17:13;;;;;;;;;;;10.70;99.90;;;;;;5042035;28;19925;-71
2023/01/05 03:19:43;;;;;;;;;;;10.60;99.90;;;;;;5042663;28;20187;-70
2023/01/05 03:36:06;;;;;;;;;;;10.70;99.90;;;;;;5040423;28;19935;-70
2023/01/05 03:38:35;;;;;;;;;;;10.70;99.90;;;;;;5039798;28;19925;-71
2023/01/05 03:41:03;;;;;;;;;;;10.60;99.90;;;;;;5041367;28;19925;-71
2023/01/05 03:43:32;;;;;;;;;;;10.70;99.90;;;;;;5042538;28;19924;-70
2023/01/05 03:45:59;;;;;;;;;;;10.70;99.90;;;;;;5043844;28;19936;-70
2023/01/05 03:48:26;;;;;;;;;;;10.60;99.90;;;;;;5036128;28;19925;-70
2023/01/05 03:50:53;;;;;;;;;;;10.70;99.90;;;;;;5042755;28;20970;-69
2023/01/05 03:53:21;;;;;;;;;;;10.70;99.90;;;;;;5043130;28;20272;-72
2023/01/05 03:55:48;;;;;;;;;;;10.70;99.90;;;;;;5040974;28;20379;-71
2023/01/05 03:58:14;;;;;;;;;;;10.70;99.90;;;;;;5042943;28;19947;-70
2023/01/05 04:00:41;;;;;;;;;;;10.70;99.90;;;;;;5045106;28;20036;-70
2023/01/05 04:03:09;;;;;;;;;;;10.70;99.90;;;;;;5039212;28;20339;-70
2023/01/05 04:05:35;;;;;;;;;;;10.60;99.90;;;;;;5043009;28;19978;-71
2023/01/05 04:08:02;;;;;;;;;;;10.60;99.90;;;;;;5038472;28;20315;-71
2023/01/05 04:10:30;;;;;;;;;;;10.70;99.90;;;;;;5039153;28;19925;-70
2023/01/05 04:12:57;;;;;;;;;;;10.60;99.90;;;;;;5043874;28;19939;-70
2023/01/05 04:15:23;;;;;;;;;;;10.60;99.90;;;;;;5039000;28;20410;-70
2023/01/05 04:17:50;;;;;;;;;;;10.60;99.90;;;;;;5038244;28;20355;-70
2023/01/05 04:20:17;;;;;;;;;;;10.60;99.90;;;;;;5041023;28;20035;-71
2023/01/05 04:22:43;;;;;;;;;;;10.60;99.90;;;;;;5040841;28;20355;-71
2023/01/05 04:25:10;;;;;;;;;;;10.60;99.90;;;;;;5039974;28;19931;-70
2023/01/05 04:27:38;;;;;;;;;;;10.60;99.90;;;;;;5044660;28;19928;-70
2023/01/05 04:30:05;;;;;;;;;;;10.60;99.90;;;;;;5046527;28;19925;-71
2023/01/05 04:32:32;;;;;;;;;;;10.60;99.90;;;;;;5044145;28;19928;-71
2023/01/05 04:34:59;;;;;;;;;;;10.70;99.90;;;;;;5039737;28;19931;-70
2023/01/05 04:37:25;;;;;;;;;;;10.60;99.90;;;;;;5039179;28;20019;-71
2023/01/05 04:39:52;;;;;;;;;;;10.60;99.90;;;;;;5039126;28;20019;-72
2023/01/05 04:42:19;;;;;;;;;;;10.60;99.90;;;;;;5036035;28;19924;-71
2023/01/05 04:44:47;;;;;;;;;;;10.60;99.90;;;;;;5039094;28;19929;-70
2023/01/05 04:47:13;;;;;;;;;;;10.60;99.90;;;;;;5038742;28;19940;-71
2023/01/05 04:49:40;;;;;;;;;;;10.60;99.90;;;;;;5036659;28;19933;-71
2023/01/05 04:52:07;;;;;;;;;;;10.50;99.90;;;;;;5037558;28;19928;-71
2023/01/05 04:54:34;;;;;;;;;;;10.60;99.90;;;;;;5040186;28;19925;-71
2023/01/05 04:57:03;;;;;;;;;;;10.60;99.90;;;;;;5039067;28;19972;-71
2023/01/05 04:59:29;;;;;;;;;;;10.60;99.90;;;;;;5044817;28;19986;-71
2023/01/05 05:01:57;;;;;;;;;;;10.60;99.90;;;;;;5042057;28;20941;-71
2023/01/05 05:04:24;;;;;;;;;;;10.60;99.90;;;;;;5038574;28;20011;-71
2023/01/05 05:06:50;;;;;;;;;;;10.60;99.90;;;;;;5039484;28;19932;-71
2023/01/05 05:09:17;;;;;;;;;;;10.60;99.90;;;;;;5039452;28;19928;-71
2023/01/05 05:11:44;;;;;;;;;;;10.60;99.90;;;;;;5037616;28;20269;-72
2023/01/05 05:14:10;;;;;;;;;;;10.60;99.90;;;;;;5040928;28;20040;-71
2023/01/05 05:16:37;;;;;;;;;;;10.60;99.90;;;;;;5046354;28;20016;-71
2023/01/05 05:19:05;;;;;;;;;;;10.60;99.90;;;;;;5041160;28;20430;-71
2023/01/05 05:21:32;;;;;;;;;;;10.60;99.90;;;;;;5038917;28;20012;-73
2023/01/05 05:23:58;;;;;;;;;;;10.60;99.90;;;;;;5040537;28;19931;-72
2023/01/05 05:26:25;;;;;;;;;;;10.50;99.90;;;;;;5037606;28;20011;-73
2023/01/05 05:28:52;;;;;;;;;;;10.40;99.90;;;;;;5038522;28;20339;-73
2023/01/05 05:31:18;;;;;;;;;;;10.40;99.90;;;;;;5039529;28;19971;-73
2023/01/05 05:33:45;;;;;;;;;;;10.30;99.90;;;;;;5045395;28;20011;-72
2023/01/05 05:36:13;;;;;;;;;;;10.30;99.90;;;;;;5037480;28;19933;-74
2023/01/05 05:38:40;;;;;;;;;;;10.20;99.90;;;;;;5042239;28;20344;-73
2023/01/05 05:41:06;;;;;;;;;;;10.20;99.90;;;;;;5039934;28;20007;-72
2023/01/05 05:43:33;;;;;;;;;;;10.20;99.90;;;;;;5041256;28;20362;-72
2023/01/05 05:46:00;;;;;;;;;;;10.30;99.90;;;;;;5045435;28;19935;-71
2023/01/05 05:48:26;;;;;;;;;;;10.30;99.90;;;;;;5040728;28;20429;-71
2023/01/05 05:50:53;;;;;;;;;;;10.30;99.90;;;;;;5046722;28;20402;-72
2023/01/05 05:53:21;;;;;;;;;;;10.30;99.90;;;;;;5041821;28;19933;-71
2023/01/05 05:55:48;;;;;;;;;;;10.30;99.90;;;;;;5042254;28;20406;-71
2023/01/05 05:58:15;;;;;;;;;;;10.30;99.90;;;;;;5040439;28;19936;-71
2023/01/05 06:00:42;;;;;;;;;;;10.40;99.90;;;;;;5041718;28;19924;-72
2023/01/05 06:03:08;;;;;;;;;;;10.40;99.90;;;;;;5046335;28;19929;-72
2023/01/05 06:05:35;;;;;;;;;;;10.40;99.90;;;;;;5040873;28;19932;-72
2023/01/05 06:08:02;;;;;;;;;;;10.40;99.90;;;;;;5043045;28;20380;-72
2023/01/05 06:10:30;;;;;;;;;;;10.40;99.90;;;;;;5042901;28;19925;-72
2023/01/05 06:12:56;;;;;;;;;;;10.40;99.90;;;;;;5041842;28;19931;-72
2023/01/05 06:15:23;;;;;;;;;;;10.40;99.90;;;;;;5048811;28;19925;-72
2023/01/05 06:17:50;;;;;;;;;;;10.40;99.90;;;;;;5052206;28;19939;-71
2023/01/05 06:20:17;;;;;;;;;;;10.40;99.90;;;;;;5048927;28;20023;-73
2023/01/05 06:22:44;;;;;;;;;;;10.40;99.90;;;;;;5044105;28;20020;-72
2023/01/05 06:25:10;;;;;;;;;;;10.40;99.90;;;;;;5042387;28;19946;-71
2023/01/05 06:27:38;;;;;;;;;;;10.40;99.90;;;;;;5040326;28;19939;-71
2023/01/05 06:30:09;;;;;;;;;;;10.40;99.90;;;;;;5044608;28;19931;-72
2023/01/05 06:32:35;;;;;;;;;;;10.30;99.90;;;;;;5039161;28;19924;-71
2023/01/05 06:35:02;;;;;;;;;;;10.30;99.90;;;;;;5039852;28;20481;-71
2023/01/05 06:37:29;;;;;;;;;;;10.30;99.90;;;;;;5040386;28;20463;-72
2023/01/05 06:39:55;;;;;;;;;;;10.30;99.90;;;;;;5045239;28;19925;-72
2023/01/05 06:42:22;;;;;;;;;;;10.30;99.90;;;;;;5040468;28;19925;-72
2023/01/05 06:44:50;;;;;;;;;;;10.30;99.90;;;;;;5040415;28;20023;-72
2023/01/05 06:47:17;;;;;;;;;;;10.30;99.90;;;;;;5036998;28;20390;-72
2023/01/05 06:49:43;;;;;;;;;;;10.30;99.90;;;;;;5041174;28;20005;-72
2023/01/05 06:52:10;;;;;;;;;;;10.30;99.90;;;;;;5039526;28;19932;-72
2023/01/05 06:54:37;;;;;;;;;;;10.30;99.90;;;;;;5038162;28;20402;-72
2023/01/05 06:57:05;;;;;;;;;;;10.30;99.90;;;;;;5038954;28;20295;-72
2023/01/05 06:59:32;;;;;;;;;;;10.30;99.90;;;;;;5036074;28;20031;-72
2023/01/05 07:02:00;;;;;;;;;;;10.40;99.90;;;;;;5042096;28;19971;-73
2023/01/05 07:04:27;;;;;;;;;;;10.30;99.90;;;;;;5041489;28;20012;-72
2023/01/05 07:06:53;;;;;;;;;;;10.40;99.90;;;;;;5038770;28;19929;-72
2023/01/05 07:09:20;;;;;;;;;;;10.40;99.90;;;;;;5040513;28;20019;-72
2023/01/05 07:11:48;;;;;;;;;;;10.40;99.90;;;;;;5036441;28;19933;-74
2023/01/05 07:14:16;;;;;;;;;;;10.40;99.90;;;;;;5042325;28;19925;-70
2023/01/05 07:16:42;;;;;;;;;;;10.30;99.90;;;;;;5038294;28;19929;-71
2023/01/05 07:19:11;;;;;;;;;;;10.20;99.90;;;;;;5046961;28;19932;-72
2023/01/05 07:21:38;;;;;;;;;;;10.10;99.90;;;;;;5042228;28;20024;-71
2023/01/05 07:24:05;;;;;;;;;;;10.10;99.90;;;;;;5042185;28;19931;-70
2023/01/05 07:26:31;;;;;;;;;;;10.00;99.90;;;;;;5036275;28;19925;-70
2023/01/05 07:28:58;;;;;;;;;;;10.00;99.90;;;;;;5042534;28;20018;-71
2023/01/05 07:31:25;;;;;;;;;;;10.00;99.90;;;;;;5036391;28;19924;-69
2023/01/05 07:33:51;;;;;;;;;;;10.10;99.90;;;;;;5032009;28;21509;-71
2023/01/05 07:36:19;;;;;;;;;;;10.10;99.90;;;;;;5042406;28;19924;-70
2023/01/05 07:38:46;;;;;;;;;;;10.10;99.90;;;;;;5044590;28;20367;-71
2023/01/05 07:41:13;;;;;;;;;;;10.10;99.90;;;;;;5046352;28;19925;-71
2023/01/05 07:43:39;;;;;;;;;;;10.10;99.90;;;;;;5042071;28;19931;-71
2023/01/05 07:46:06;;;;;;;;;;;10.20;99.90;;;;;;5049320;28;20012;-70
2023/01/05 07:48:33;;;;;;;;;;;10.20;99.90;;;;;;5047331;28;19933;-70
2023/01/05 07:51:01;;;;;;;;;;;10.20;99.90;;;;;;5047736;28;19925;-72
2023/01/05 07:53:29;;;;;;;;;;;10.20;99.90;;;;;;5042421;28;19955;-71
2023/01/05 07:55:56;;;;;;;;;;;10.20;99.90;;;;;;5047796;28;19931;-71
2023/01/05 07:58:23;;;;;;;;;;;10.20;99.90;;;;;;5046636;28;20375;-71
2023/01/05 08:00:50;;;;;;;;;;;10.20;99.90;;;;;;5046946;28;20375;-70
2023/01/05 08:03:17;;;;;;;;;;;10.20;99.90;;;;;;5041797;28;20384;-73
2023/01/05 08:05:44;;;;;;;;;;;10.10;99.90;;;;;;5042432;28;20024;-72
2023/01/05 08:08:10;;;;;;;;;;;10.10;99.90;;;;;;5041885;28;19924;-72
2023/01/05 08:10:39;;;;;;;;;;;10.10;99.90;;;;;;5043399;28;20177;-72
2023/01/05 08:15:51;;;;;;;;;;;10.10;99.90;;;;;;5031754;28;20564;-72
2023/01/05 08:18:18;;;;;;;;;;;10.10;99.90;;;;;;5036518;28;20027;-72
2023/01/05 08:20:49;;;;;;;;;;;10.10;99.90;;;;;;5039573;28;19939;-73
2023/01/05 08:23:16;;;;;;;;;;;10.10;99.90;;;;;;5038077;28;20523;-71
2023/01/05 08:25:44;;;;;;;;;;;10.10;99.90;;;;;;5044439;28;19925;-72
2023/01/05 08:28:10;;;;;;;;;;;10.10;99.90;;;;;;5039617;28;20019;-72
2023/01/05 08:30:37;;;;;;;;;;;10.10;99.90;;;;;;5043165;28;20396;-70
2023/01/05 08:33:04;;;;;;;;;;;10.20;99.90;;;;;;5036560;28;19929;-73
2023/01/05 08:35:31;;;;;;;;;;;10.20;99.90;;;;;;5037019;28;19933;-71
2023/01/05 08:37:58;;;;;;;;;;;10.20;99.90;;;;;;5037628;28;19924;-72
2023/01/05 08:40:25;;;;;;;;;;;10.20;99.90;;;;;;5042269;28;19925;-72
2023/01/05 08:42:53;;;;;;;;;;;10.20;99.90;;;;;;5043503;28;19925;-72
2023/01/05 08:45:19;;;;;;;;;;;10.20;99.90;;;;;;5045461;28;19935;-72
2023/01/05 08:47:46;;;;;;;;;;;10.10;99.90;;;;;;5033047;28;19933;-72
2023/01/05 08:50:13;;;;;;;;;;;10.10;99.90;;;;;;5037752;28;19933;-72
2023/01/05 08:52:40;;;;;;;;;;;10.10;99.90;;;;;;5038129;28;19935;-72
2023/01/05 08:55:07;;;;;;;;;;;10.20;99.90;;;;;;5040979;28;19947;-73
2023/01/05 08:57:34;;;;;;;;;;;10.20;99.90;;;;;;5043371;28;21013;-72
2023/01/05 09:00:03;;;;;;;;;;;10.20;99.90;;;;;;5039918;28;20375;-74
2023/01/05 09:02:30;;;;;;;;;;;10.20;99.90;;;;;;5039647;28;19932;-73
2023/01/05 09:04:56;;;;;;;;;;;10.30;99.90;;;;;;5038521;28;19956;-73
2023/01/05 09:07:23;;;;;;;;;;;10.30;99.90;;;;;;5040541;28;20384;-74
2023/01/05 09:09:50;;;;;;;;;;;10.30;99.90;;;;;;5047264;28;20116;-73
2023/01/05 09:12:17;;;;;;;;;;;10.30;99.90;;;;;;5033762;28;20023;-72
2023/01/05 09:14:44;;;;;;;;;;;10.30;99.90;;;;;;5036303;28;20392;-73
2023/01/05 09:17:12;;;;;;;;;;;10.20;99.90;;;;;;5037567;28;19932;-72
2023/01/05 09:19:39;;;;;;;;;;;10.20;99.90;;;;;;5035121;28;20299;-73
2023/01/05 09:22:05;;;;;;;;;;;10.20;99.90;;;;;;5040579;28;20451;-72
2023/01/05 09:24:32;;;;;;;;;;;10.20;99.90;;;;;;5044643;28;19986;-73
2023/01/05 09:26:59;;;;;;;;;;;10.30;99.90;;;;;;5041844;28;19935;-72
2023/01/05 09:29:25;;;;;;;;;;;10.30;99.90;;;;;;5038472;28;20478;-73
2023/01/05 09:31:52;;;;;;;;;;;10.30;99.90;;;;;;5041288;28;19925;-73
2023/01/05 09:34:20;;;;;;;;;;;10.30;99.90;;;;;;5044215;28;19955;-73
2023/01/05 09:36:47;;;;;;;;;;;10.40;99.90;;;;;;5036231;28;20531;-72
2023/01/05 09:39:13;;;;;;;;;;;10.40;99.90;;;;;;5042678;28;20384;-72
2023/01/05 09:41:43;;;;;;;;;;;10.40;99.90;;;;;;5040331;28;19935;-73
2023/01/05 09:44:15;;;;;;;;;;;10.40;99.90;;;;;;5040889;28;20084;-73
2023/01/05 09:46:43;;;;;;;;;;;10.40;99.90;;;;;;5046333;28;20016;-73
2023/01/05 09:49:13;;;;;;;;;;;10.40;99.90;;;;;;5041520;28;19944;-73
2023/01/05 09:51:41;;;;;;;;;;;10.50;99.90;;;;;;5047758;28;19937;-72
2023/01/05 09:54:13;;;;;;;;;;;10.50;99.90;;;;;;5040984;28;19952;-69
2023/01/05 09:56:41;;;;;;;;;;;10.60;99.90;;;;;;5045859;28;19929;-73
2023/01/05 09:59:12;;;;;;;;;;;10.70;99.90;;;;;;5038249;28;20368;-72
2023/01/05 10:01:39;;;;;;;;;;;10.60;99.90;;;;;;5040001;28;19925;-72
2023/01/05 10:04:09;;;;;;;;;;;10.60;99.90;;;;;;5035968;28;20453;-73
2023/01/05 10:06:39;;;;;;;;;;;10.70;99.90;;;;;;5040477;28;19978;-73
2023/01/05 10:14:45;;;;;;;;;;;10.60;99.90;;;;;;4962996;28;19940;-73
2023/01/05 10:17:13;;;;;;;;;;;10.70;99.90;;;;;;4961168;28;19934;-74
2023/01/05 10:19:40;;;;;;;;;;;10.60;99.90;;;;;;4967856;28;19934;-73
2023/01/05 10:22:17;;;;;;;;;;;10.60;99.90;;;;;;4967489;28;20342;-74
2023/01/05 10:24:47;;;;;;;;;;;10.60;99.90;;;;;;4966255;28;19933;-73
2023/01/05 10:27:17;;;;;;;;;;;10.70;99.90;;;;;;4962029;28;20053;-73
2023/01/05 10:29:45;;;;;;;;;;;10.70;99.90;;;;;;4960992;28;20060;-73
2023/01/05 10:32:19;;;;;;;;;;;10.70;99.90;;;;;;4963079;28;20353;-74
2023/01/05 10:34:54;;;;;;;;;;;10.70;99.90;;;;;;4966587;28;19942;-72
2023/01/05 10:37:29;;;;;;;;;;;10.60;99.90;;;;;;4964777;28;19981;-75
2023/01/05 10:40:02;;;;;;;;;;;10.60;99.90;;;;;;4966400;28;20380;-75
2023/01/05 10:42:40;;;;;;;;;;;10.70;99.90;;;;;;4967926;28;19930;-74
2023/01/05 10:45:09;;;;;;;;;;;10.70;99.90;;;;;;4964789;28;19930;-74
2023/01/05 10:47:37;;;;;;;;;;;10.70;99.90;;;;;;4955196;28;19937;-74
2023/01/05 10:50:16;;;;;;;;;;;10.80;99.90;;;;;;4958641;28;19926;-77
2023/01/05 10:52:44;;;;;;;;;;;10.90;99.90;;;;;;4963945;28;20481;-75
2023/01/05 10:55:13;;;;;;;;;;;11.10;99.90;;;;;;4962526;28;20109;-75
2023/01/05 10:57:41;;;;;;;;;;;11.20;99.90;;;;;;4970244;28;19934;-74
2023/01/05 11:00:13;;;;;;;;;;;11.20;99.90;;;;;;4969083;28;20021;-74
2023/01/05 11:02:41;;;;;;;;;;;11.10;99.90;;;;;;4964960;28;19993;-75
2023/01/05 11:05:24;;;;;;;;;;;11.10;99.90;;;;;;4963693;28;19942;-74
2023/01/05 11:07:52;;;;;;;;;;;11.10;99.90;;;;;;4968738;28;19933;-74
2023/01/05 11:10:22;;;;;;;;;;;11.00;99.90;;;;;;4964047;28;19958;-74
2023/01/05 11:12:55;;;;;;;;;;;11.00;99.90;;;;;;4964448;28;19936;-74
2023/01/05 11:15:22;;;;;;;;;;;11.10;99.90;;;;;;4969085;28;20405;-73
2023/01/05 11:17:48;;;;;;;;;;;11.20;99.90;;;;;;4972112;28;19937;-75
2023/01/05 11:20:16;;;;;;;;;;;11.30;99.90;;;;;;4965206;28;20472;-74
2023/01/05 11:22:43;;;;;;;;;;;11.40;99.90;;;;;;4960757;28;19941;-72
2023/01/05 11:25:14;;;;;;;;;;;11.50;99.90;;;;;;4963988;28;19935;-73
2023/01/05 11:27:41;;;;;;;;;;;11.50;99.90;;;;;;4971618;28;19933;-72
2023/01/05 11:30:23;;;;;;;;;;;11.50;99.90;;;;;;4963996;28;20032;-71
2023/01/05 11:32:50;;;;;;;;;;;11.60;99.90;;;;;;4970201;28;19949;-72
2023/01/05 11:35:18;;;;;;;;;;;11.70;99.90;;;;;;4972254;28;20025;-71
2023/01/05 11:37:45;;;;;;;;;;;11.70;99.90;;;;;;4965330;28;19930;-74
2023/01/05 11:40:15;;;;;;;;;;;11.80;99.90;;;;;;4973773;28;20432;-73
2023/01/05 11:42:43;;;;;;;;;;;11.80;99.90;;;;;;4971551;28;20013;-70
2023/01/05 11:45:19;;;;;;;;;;;11.90;99.90;;;;;;4966911;28;19957;-72
2023/01/05 11:47:49;;;;;;;;;;;11.90;99.90;;;;;;4970891;28;19933;-72
2023/01/05 11:50:20;;;;;;;;;;;11.90;99.90;;;;;;4967253;28;19936;-72
2023/01/05 11:52:48;;;;;;;;;;;12.00;99.90;;;;;;4970554;28;19957;-72
2023/01/05 11:55:26;;;;;;;;;;;12.00;99.90;;;;;;4965578;28;19997;-73
2023/01/05 11:57:54;;;;;;;;;;;12.00;99.90;;;;;;4965057;28;19930;-71
2023/01/05 12:00:23;;;;;;;;;;;12.10;99.90;;;;;;4960187;28;19934;-72
2023/01/05 12:03:02;;;;;;;;;;;12.20;99.90;;;;;;4962721;28;19939;-73
2023/01/05 12:05:36;;;;;;;;;;;12.20;99.90;;;;;;4964231;28;20024;-70
2023/01/05 12:08:08;;;;;;;;;;;12.20;99.90;;;;;;4960750;28;19989;-72
2023/01/05 12:10:47;;;;;;;;;;;12.20;99.90;;;;;;4964110;28;20381;-72
2023/01/05 12:13:24;;;;;;;;;;;12.10;99.90;;;;;;4960096;28;19930;-73
2023/01/05 12:15:57;;;;;;;;;;;12.00;99.90;;;;;;4962883;28;20056;-71
2023/01/05 12:18:29;;;;;;;;;;;12.00;99.90;;;;;;4958316;28;19985;-72
2023/01/05 12:20:57;;;;;;;;;;;12.10;99.90;;;;;;4961530;28;19926;-72
2023/01/05 12:23:47;;;;;;;;;;;12.10;99.90;;;;;;4969619;28;19932;-72
2023/01/05 12:26:19;;;;;;;;;;;12.20;99.90;;;;;;4957417;28;20016;-72
2023/01/05 12:28:51;;;;;;;;;;;12.40;99.90;;;;;;4954478;28;19941;-72
2023/01/05 12:31:29;;;;;;;;;;;12.40;99.90;;;;;;4955202;28;20293;-72
2023/01/05 12:34:02;;;;;;;;;;;12.40;99.90;;;;;;4963614;28;19964;-73
2023/01/05 12:36:34;;;;;;;;;;;12.30;99.90;;;;;;4960851;28;20009;-73
2023/01/05 12:39:06;;;;;;;;;;;12.30;99.90;;;;;;4948830;28;19933;-72
2023/01/05 12:41:42;;;;;;;;;;;12.30;99.90;;;;;;4961846;28;19938;-72
2023/01/05 12:44:18;;;;;;;;;;;12.20;99.90;;;;;;4963311;28;20008;-73
2023/01/05 12:46:51;;;;;;;;;;;12.20;99.90;;;;;;4971745;28;19926;-72
2023/01/05 12:49:21;;;;;;;;;;;12.10;99.90;;;;;;4960868;28;20013;-73
2023/01/05 12:51:50;;;;;;;;;;;12.00;99.90;;;;;;4966197;28;19933;-73
2023/01/05 12:54:24;;;;;;;;;;;11.90;99.90;;;;;;4960232;28;20397;-72
2023/01/05 12:56:53;;;;;;;;;;;11.80;99.90;;;;;;4961121;28;20017;-73
2023/01/05 12:59:23;;;;;;;;;;;11.70;99.90;;;;;;4957003;28;19926;-71
2023/01/05 13:01:52;;;;;;;;;;;11.60;99.90;;;;;;4964878;28;20391;-72
2023/01/05 13:04:29;;;;;;;;;;;11.50;99.90;;;;;;4964991;28;20028;-73
2023/01/05 13:06:58;;;;;;;;;;;11.50;99.90;;;;;;4965337;28;19926;-73
2023/01/05 13:09:27;;;;;;;;;;;11.40;99.90;;;;;;4961239;28;20020;-74
2023/01/05 13:11:56;;;;;;;;;;;11.20;99.90;;;;;;4961125;28;19981;-71
2023/01/05 13:14:25;;;;;;;;;;;11.20;99.90;;;;;;4968352;28;20496;-72
2023/01/05 13:16:53;;;;;;;;;;;11.20;99.90;;;;;;4964155;28;19927;-75
2023/01/05 13:19:21;;;;;;;;;;;11.20;99.90;;;;;;4965892;28;19937;-74
2023/01/05 13:21:50;;;;;;;;;;;11.20;99.90;;;;;;4962773;28;20004;-74
2023/01/05 13:24:21;;;;;;;;;;;11.30;99.90;;;;;;4966087;28;20270;-76
2023/01/05 13:26:48;;;;;;;;;;;11.40;99.90;;;;;;4960904;28;19932;-74
2023/01/05 13:29:21;;;;;;;;;;;11.50;99.90;;;;;;4965074;28;19972;-74
2023/01/05 13:32:03;;;;;;;;;;;11.50;99.90;;;;;;4963582;28;19945;-74
2023/01/05 13:34:38;;;;;;;;;;;11.50;99.90;;;;;;4957132;28;20412;-75
2023/01/05 13:37:14;;;;;;;;;;;11.50;99.90;;;;;;4950799;28;20112;-73
2023/01/05 13:39:47;;;;;;;;;;;11.50;99.90;;;;;;4966074;28;19941;-74
2023/01/05 13:42:21;;;;;;;;;;;11.50;99.90;;;;;;4963630;28;19941;-74
2023/01/05 13:45:05;;;;;;;;;;;11.50;99.90;;;;;;4957918;28;19930;-73
2023/01/05 13:47:41;;;;;;;;;;;11.50;99.90;;;;;;4967114;28;20021;-72
2023/01/05 13:50:27;;;;;;;;;;;11.50;99.90;;;;;;4968822;28;20024;-73
2023/01/05 13:53:05;;;;;;;;;;;11.50;99.90;;;;;;4961907;28;20332;-72
2023/01/05 13:55:34;;;;;;;;;;;11.50;99.90;;;;;;4968523;28;19926;-74
2023/01/05 13:58:02;;;;;;;;;;;11.50;99.90;;;;;;4963173;28;19953;-75
2023/01/05 14:00:30;;;;;;;;;;;11.50;99.90;;;;;;4969526;28;20459;-75
2023/01/05 14:03:06;;;;;;;;;;;11.60;99.90;;;;;;4973134;28;19973;-72
2023/01/05 14:05:33;;;;;;;;;;;11.50;99.90;;;;;;4970551;28;19925;-73
2023/01/05 14:08:02;;;;;;;;;;;11.50;99.90;;;;;;4968414;28;20349;-75
2023/01/05 14:10:31;;;;;;;;;;;11.50;99.90;;;;;;4966134;28;19937;-74
2023/01/05 14:12:58;;;;;;;;;;;11.50;99.90;;;;;;4968352;28;20440;-75
2023/01/05 14:15:32;;;;;;;;;;;11.50;99.90;;;;;;4971166;28;19940;-75
2023/01/05 14:18:00;;;;;;;;;;;11.50;99.90;;;;;;4966466;28;19926;-75
2023/01/05 14:20:32;;;;;;;;;;;11.50;99.90;;;;;;4966466;28;19926;-75
2023/01/05 14:22:59;;;;;;;;;;;11.60;99.90;;;;;;4967549;28;20017;-74
2023/01/05 14:25:48;;;;;;;;;;;11.50;99.90;;;;;;4970881;28;19948;-73
2023/01/05 14:28:19;;;;;;;;;;;11.50;99.90;;;;;;4965529;28;20028;-74
2023/01/05 14:30:46;;;;;;;;;;;11.60;99.90;;;;;;4964421;28;19945;-72
2023/01/05 14:33:13;;;;;;;;;;;11.60;99.90;;;;;;4964706;28;19933;-75
2023/01/05 14:35:39;;;;;;;;;;;11.60;99.90;;;;;;4964717;28;19934;-74
2023/01/05 14:38:13;;;;;;;;;;;11.60;99.90;;;;;;4966430;28;19926;-74
2023/01/05 14:40:41;;;;;;;;;;;11.70;99.90;;;;;;4968926;28;20362;-74
2023/01/05 14:43:20;;;;;;;;;;;11.70;99.90;;;;;;4960000;28;19969;-74
2023/01/05 14:45:57;;;;;;;;;;;11.80;99.90;;;;;;4960980;28;19933;-73
2023/01/05 14:48:28;;;;;;;;;;;11.90;99.90;;;;;;4960716;28;19944;-72
2023/01/05 14:51:06;;;;;;;;;;;11.90;99.90;;;;;;4960950;28;19934;-70
2023/01/05 14:53:40;;;;;;;;;;;12.00;99.90;;;;;;4959456;28;20293;-71
2023/01/05 14:56:15;;;;;;;;;;;12.00;99.90;;;;;;4959876;28;22163;-72
2023/01/05 14:59:00;;;;;;;;;;;12.00;99.90;;;;;;4964372;28;19934;-70
2023/01/05 15:01:30;;;;;;;;;;;11.90;99.90;;;;;;4970292;28;19933;-71
2023/01/05 15:04:00;;;;;;;;;;;11.90;99.90;;;;;;4968773;28;20069;-71